Terminal Aerodrome Forecast
Issued by NWS

Home | Current Version | Previous Version | Text Only | Print | Product List | Glossary On
Versions: 1 2 3 4 5 6 7 8 9 10 11 12 13 14 15 16
000
FTUS44 KEPZ 171700 RRA
TAFTCS
TAF
KTCS 171733Z 1718/1818 15007KT P6SM VCSH FEW010 SCT050 BKN080
      TEMPO 1720/1724 4SM TSRA BKN025CB
     FM180100 01007KT 6SM -SHRA FEW005 BKN020 OVC035
     FM180300 01004KT 4SM -SHRA SCT005 BKN015 OVC030=

USA.gov is the U.S. government's official web portal to all federal, state and local government web resources and services.